Flight Track Log - Related Links

Times and Time Zones

All times are in EDT time to prevent confusion due to time zone crossing. See the SWA533 flight status page for this flight to view local times or setup timezone preferences in your user account.

Time Position Orientation Groundspeed Altitude Reporting Facility
EDT Latitude Longitude Course Direction KTS MPH feet Rate Location/Type
Sat 11:47:11 AM 39.1667 -76.7333 180° South 175 201 2,500  Level Potomac TRACON
Sat 11:48:06 AM 39.1167 -76.7333 180° South 276 318 4,900 3,130 Climbing Potomac TRACON
Sat 11:49:06 AM 39.1000 -76.6333 102° East 308 354 8,500 3,053 Climbing Potomac TRACON
Sat 11:50:57 AM 39.1231 -76.4450 81° East 328 377 13,600 2,632 Climbing Washington Center
Sat 11:51:57 AM 39.1364 -76.3061 83° East 360 414 16,000 1,271 Climbing Washington Center
Sat 11:52:55 AM 39.1558 -76.1644 80° East 382 440 16,100 1,261 Climbing Washington Center
Sat 11:53:56 AM 39.1753 -76.0172 80° East 400 460 18,500 2,361 Climbing Washington Center
Sat 11:54:57 AM 39.2028 -75.8756 76° East 407 468 20,900 2,420 Climbing Washington Center
Sat 11:55:55 AM 39.2800 -75.7658 48° Northeast 402 463 23,300 2,695 Climbing Washington Center
Sat 11:56:55 AM 39.3636 -75.6586 45° Northeast 402 463 26,200 2,777 Climbing Washington Center
Sat 11:57:56 AM 39.4447 -75.5567 44° Northeast 402 463 28,900 832 Climbing Washington Center
Sat 12:00:17 PM 39.6517 -75.2872 45° Northeast 437 503 29,000 30 Climbing New York Center
Sat 12:01:19 PM 39.7444 -75.1500 49° Northeast 449 517 29,000  Level New York Center
Sat 12:02:18 PM 39.8303 -75.0283 47° Northeast 454 522 29,000  Level New York Center
Sat 12:03:19 PM 39.9181 -74.9039 47° Northeast 454 522 29,000  Level New York Center
Sat 12:04:17 PM 40.0200 -74.7961 39° Northeast 454 522 29,000  Level New York Center
Sat 12:05:17 PM 40.1133 -74.6819 43° Northeast 454 522 29,000  Level New York Center
Sat 12:06:18 PM 40.2089 -74.5678 42° Northeast 454 522 29,000  Level New York Center
Sat 12:07:19 PM 40.3022 -74.4506 44° Northeast 459 528 29,000  Level New York Center
Sat 12:09:17 PM 40.4942 -74.2192 42° Northeast 470 541 29,000 -101 Level Boston Center
Sat 12:10:17 PM 40.5897 -74.1017 43° Northeast 470 541 28,700 -1,100 Descending Boston Center
Sat 12:11:17 PM 40.6767 -74.0000 42° Northeast 447 514 26,800 -2,150 Descending Boston Center
Sat 12:12:17 PM 40.7611 -73.9006 42° Northeast 421 484 24,400 -1,400 Descending Boston Center
Sat 12:13:17 PM 40.8439 -73.8008 42° Northeast 407 468 24,000 -500 Descending Boston Center
Sat 12:14:17 PM 40.9406 -73.7261 30° Northeast 392 451 23,400 -500 Descending Boston Center
Sat 12:15:17 PM 41.0492 -73.7089 North 378 435 23,000 -250 Descending Boston Center
Sat 12:16:17 PM 41.1575 -73.6917 North 378 435 22,900 -550 Descending Boston Center
Sat 12:17:17 PM 41.2600 -73.6717 North 378 435 21,900 -1,000 Descending Boston Center
Sat 12:18:17 PM 41.3622 -73.6542 North 372 428 20,900 -1,050 Descending Boston Center
Sat 12:19:17 PM 41.4644 -73.6367 North 367 422 19,800 -950 Descending Boston Center
Sat 12:20:17 PM 41.5522 -73.6217 North 367 422 19,000 -950 Descending Boston Center
Sat 12:21:17 PM 41.6608 -73.6044 North 367 422 17,900 -1,000 Descending Boston Center
Sat 12:22:17 PM 41.7464 -73.5892 North 360 414 17,000 -1,000 Descending Boston Center
Sat 12:23:17 PM 41.8528 -73.5717 North 354 407 15,900 -1,255 Descending Boston Center
Sat 12:24:07 PM 41.9322 -73.5592 North 351 404 14,700 -1,771 Descending Boston Center
Sat 12:25:02 PM 42.0178 -73.5439 North 341 392 12,800 -1,971 Descending Boston Center
Sat 12:25:17 PM 42.0428 -73.5386 North 349 402 12,400 -1,672 Descending Boston Center
Sat 12:26:03 PM 42.1117 -73.5314 North 331 381 11,100 -849 Descending Boston Center
Sat 12:27:03 PM 42.1883 -73.5778 336° Northwest 300 345 10,900 -793 Descending Boston Center
Sat 12:28:04 PM 42.2589 -73.6183 337° Northwest 272 313 9,500 -1,670 Descending Boston Center
Sat 12:28:58 PM 42.3208 -73.6558 336° Northwest 250 288 7,700 -1,726 Descending Boston Center
Sat 12:29:17 PM 42.3394 -73.6675 335° Northwest 267 307 7,400 -1,574 Descending Boston Center
Sat 12:29:59 PM 42.3831 -73.6908 338° Northwest 244 281 6,100 -1,600 Descending Boston Center
Sat 12:30:17 PM 42.3956 -73.6994 333° Northwest 238 274 5,800 -1,672 Descending Boston Center
Sat 12:31:00 PM 42.4369 -73.7286 333° Northwest 222 255 4,400 -2,000 Descending Boston Center
Sat 12:31:17 PM 42.4575 -73.7375 342° North 225 259 3,800 -2,100 Descending Boston Center
Sat 12:32:00 PM 42.4969 -73.7608 336° Northwest 213 245 2,300 -1,700 Descending Boston Center
Sat 12:32:17 PM 42.5072 -73.7667 337° Northwest 219 252 2,100 -295 Descending Boston Center
Sat 12:33:01 PM 42.5486 -73.7956 333° Northwest 205 236 2,000 -100 Descending Boston Center
Sat 12:33:17 PM 42.5611 -73.7986 350° North 200 230 2,000  Level Boston Center
Sat 12:34:17 PM 42.5986 -73.7997 359° North 178 205 2,000  Level Boston Center
Sat 12:35:14 PM 42.6422 -73.8033 357° North 123 142 2,000 -214 Level Boston Center
Sat 12:36:09 PM 42.6694 -73.8039 359° North 122 140 1,600 -569 Descending Boston Center
Sat 12:37:10 PM 42.7069 -73.8047 359° North 119 137 900 -689 Descending Boston Center
Sat 12:40:00 PM 42.7333 -73.8000 345° North  Level FlightAware Approximate

Login

Don't have an account? Register now (free) for customized features, flight alerts, and more!